Surface/Precipitation History
10/20/2014 17:59  to  10/21/2014 17:59
Change End Date:
Date/Time
(MDT)
Sf
Temp Chem Water Layer Surface Precipitation
Sf Sub Frz Factor Pct Depth IcePct Cond Salin Type Intens Accum Rate
10/21/2014 17:55 Wet 41.2F 50F 32F 5 0% 0.70 in 0% 1 mhos 46 None None - -
10/21/2014 17:45 Wet 41.7F 50F 32F 5 0% 0.70 in 0% 0 mhos 44 None None - -
10/21/2014 17:40 Wet 41.7F 50F 32F 5 0% 0.70 in 0% 0 mhos 44 None None - -
10/21/2014 17:35 Wet 41.5F 50F 32F 5 0% 0.70 in 0% 0 mhos 44 None None - -
10/21/2014 17:25 Wet 42.3F 50F 32F 5 1% 0.70 in 0% 3 mhos 272 None None - -
10/21/2014 17:25 Wet 42.3F 50F 32F 5 1% 0.70 in 0% 3 mhos 272 None None - -
10/21/2014 17:15 Wet 42.6F 50F 32F 5 1% 0.70 in 0% 4 mhos 351 None None - -
10/21/2014 17:10 Wet 43.2F 50F 31F 5 2% 0.70 in 0% 6 mhos 565 None None - -
10/21/2014 17:05 Wet 43.3F 50F 31F 5 3% 0.70 in 0% 10 mhos 927 None None - -
10/21/2014 16:55 Wet 43.3F 50F 30F 5 6% 0.70 in 0% 20 mhos 1820 None None - -
10/21/2014 16:55 Wet 43.3F 50F 30F 5 6% 0.70 in 0% 20 mhos 1841 None None - -
10/21/2014 16:45 Wet 43.5F 50F 30F 5 8% 0.70 in 0% 24 mhos 2264 None None - -
10/21/2014 16:40 Wet 43.5F 50F 30F 5 8% 0.80 in 0% 26 mhos 2382 Yes - - -
10/21/2014 16:34 Wet 43.5F 50F 26F 5 17% 0.70 in 0% 48 mhos 4966 Yes - - -
10/21/2014 16:25 Wet 43.9F 50F 26F 5 17% 0.70 in 0% 49 mhos 5104 None None - -
Date/Time
(MDT)
Sf
Temp Chem Water Layer Surface Precipitation
Sf Sub Frz Factor Pct Depth IcePct Cond Salin Type Intens Accum Rate
10/21/2014 16:24 Wet 43.7F 50F 27F 5 16% 0.70 in 0% 46 mhos 4706 None None - -
10/21/2014 16:14 Wet 43.5F 50F 29F 5 11% 0.80 in 0% 34 mhos 3288 None None - -
10/21/2014 16:10 Wet 43.9F 50F 25F 5 19% 0.70 in 0% 54 mhos 5666 Yes - - -
10/21/2014 16:04 Wet 44.4F 50F 24F 5 21% 0.70 in 0% 59 mhos 6329 Yes - - -
10/21/2014 15:55 Wet 44.8F 50F 24F 5 21% 0.70 in 0% 58 mhos 6209 Yes - - -
10/21/2014 15:54 Wet 44.6F 50F 24F 5 20% 0.70 in 0% 58 mhos 6142 Yes - - -
10/21/2014 15:44 Wet 44.6F 50F 26F 5 17% 0.70 in 0% 51 mhos 5228 None None - -
10/21/2014 15:40 Wet 44.8F 50F 27F 5 15% 0.70 in 0% 44 mhos 4381 None None - -
10/21/2014 15:34 Wet 44.6F 50F 20F 5 29% 0.70 in 0% 72 mhos 8567 Yes - - -
10/21/2014 15:25 Wet 43.0F 50F 3F 5 50% 0.70 in 0% 93 mhos 15000 Yes - - -
10/21/2014 15:24 Wet 43.5F 50F 3F 5 50% 0.70 in 0% 98 mhos 15000 Yes - - -
10/21/2014 15:14 Wet 45.9F 50F 31F 5 5% 0.70 in 0% 17 mhos 1496 Yes - - -
10/21/2014 15:10 Wet 47.3F 50F 32F 5 0% 0.60 in 0% 1 mhos 43 Yes - - -
10/21/2014 15:04 Wet 50.2F 50F 32F 95 1% 0.00 in 0% 5 mhos 398 Yes - - -
10/21/2014 14:55 Dry 52.7F 50F - - - - - 39 mhos 3409 None None - -
Date/Time
(MDT)
Sf
Temp Chem Water Layer Surface Precipitation
Sf Sub Frz Factor Pct Depth IcePct Cond Salin Type Intens Accum Rate
10/21/2014 14:54 Dry 52.9F 50F - - - - - 39 mhos 3399 None None - -
10/21/2014 14:44 Dry 56.8F 50F - - - - - 39 mhos 3217 None None - -
10/21/2014 14:40 Dry 60.8F 50F - - - - - 38 mhos 3052 None None - -
10/21/2014 14:34 Dry 64.4F 50F - - - - - 38 mhos 2935 None None - -
10/21/2014 14:25 Dry 62.6F 50F - - - - - 39 mhos 3013 None None - -
10/21/2014 14:24 Dry 62.4F 50F - - - - - 39 mhos 3018 None None - -
10/21/2014 14:14 Dry 61.0F 50F - - - - - 39 mhos 3070 None None - -
10/21/2014 14:10 Dry 60.8F 50F - - - - - 39 mhos 3076 None None - -
10/21/2014 14:04 Dry 60.6F 50F - - - - - 39 mhos 3079 None None - -
10/21/2014 13:55 Dry 60.6F 50F - - - - - 39 mhos 3081 None None - -
10/21/2014 13:54 Dry 60.4F 50F - - - - - 39 mhos 3087 None None - -
10/21/2014 13:44 Dry 59.5F 50F - - - - - 39 mhos 3144 None None - -
10/21/2014 13:40 Dry 59.2F 50F - - - - - 39 mhos 3155 None None - -
10/21/2014 13:34 Dry 59.9F 50F - - - - - 39 mhos 3133 None None - -
10/21/2014 13:25 Dry 59.5F 50F - - - - - 39 mhos 3144 None None - -
Date/Time
(MDT)
Sf
Temp Chem Water Layer Surface Precipitation
Sf Sub Frz Factor Pct Depth IcePct Cond Salin Type Intens Accum Rate
10/21/2014 13:24 Dry 59.0F 50F - - - - - 39 mhos 3161 None None - -
10/21/2014 13:14 Dry 57.4F 50F - - - - - 39 mhos 3224 None None - -
10/21/2014 13:10 Dry 57.0F 50F - - - - - 39 mhos 3236 None None - -
10/21/2014 13:03 Dry 56.1F 50F - - - - - 39 mhos 3247 None None - -
10/21/2014 12:55 Dry 51.6F 50F - - - - - 38 mhos 3347 None None - -
10/21/2014 12:53 Dry 50.9F 50F - - - - - 38 mhos 3380 None None - -
10/21/2014 12:43 Dry 47.1F 50F - - - - - 32 mhos 2959 None None - -
10/21/2014 12:40 Dry 44.8F 50F - - - - - 1 mhos 54 None None - -
10/21/2014 12:33 Wet 44.2F 50F 32F 5 1% 0.70 in 0% 4 mhos 329 None None - -
10/21/2014 12:25 Wet 44.6F 50F 31F 5 3% 0.70 in 0% 9 mhos 816 None None - -
10/21/2014 12:23 Wet 44.4F 50F 31F 5 4% 0.70 in 0% 12 mhos 1064 None None - -
10/21/2014 12:13 Wet 45.7F 51F 23F 5 24% 0.00 in 0% 64 mhos 7055 None None - -
10/21/2014 12:10 Wet 45.3F 51F 15F 5 36% 0.00 in 0% 82 mhos 10883 None None - -
10/21/2014 12:03 Wet 45.1F 51F 3F 5 50% 0.00 in 0% 110 mhos 15000 None None - -
10/21/2014 11:55 Wet 44.1F 51F 3F 5 50% 0.00 in 0% 124 mhos 15000 None None - -
Date/Time
(MDT)
Sf
Temp Chem Water Layer Surface Precipitation
Sf Sub Frz Factor Pct Depth IcePct Cond Salin Type Intens Accum Rate
10/21/2014 11:53 Wet 43.9F 51F 3F 5 50% 0.00 in 0% 126 mhos 15000 None None - -
10/21/2014 11:43 Wet 43.2F 51F 3F 5 50% 0.00 in 0% 132 mhos 15000 None None - -
10/21/2014 11:40 Wet 42.8F 51F 3F 5 50% 0.00 in 0% 129 mhos 15000 None None - -
10/21/2014 11:33 Wet 42.6F 51F 3F 5 50% 0.00 in 0% 138 mhos 15000 None None - -
10/21/2014 11:25 Wet 43.2F 51F 3F 5 50% 0.00 in 0% 127 mhos 15000 None None - -
10/21/2014 11:23 Wet 43.0F 51F 3F 5 50% 0.00 in 0% 112 mhos 15000 None None - -
10/21/2014 11:13 Wet 42.3F 51F 3F 5 50% 0.00 in 0% 165 mhos 15000 None None - -
10/21/2014 11:10 Wet 42.1F 51F 3F 5 50% 0.00 in 0% 132 mhos 15000 Yes - - -
10/21/2014 11:03 Wet 42.1F 51F 3F 10 50% 0.00 in 0% 96 mhos 15000 Yes - - -
10/21/2014 10:55 Wet 42.8F 51F 31F 5 3% 0.10 in 0% 11 mhos 1006 None None - -
10/21/2014 10:53 Wet 43.0F 51F 32F 5 1% 0.70 in 0% 5 mhos 424 Yes - - -
10/21/2014 10:43 Wet 43.7F 51F 32F 5 1% 0.70 in 0% 3 mhos 290 None None - -
10/21/2014 10:40 Wet 43.5F 51F 32F 5 1% 0.70 in 0% 4 mhos 306 None None - -
10/21/2014 10:33 Wet 43.7F 51F 32F 5 1% 0.70 in 0% 4 mhos 309 None None - -
10/21/2014 10:25 Wet 43.9F 51F 32F 5 1% 0.70 in 0% 4 mhos 306 None None - -
Date/Time
(MDT)
Sf
Temp Chem Water Layer Surface Precipitation
Sf Sub Frz Factor Pct Depth IcePct Cond Salin Type Intens Accum Rate
10/21/2014 10:23 Wet 43.7F 51F 32F 5 1% 0.70 in 0% 4 mhos 304 None None - -
10/21/2014 10:13 Wet 43.2F 51F 32F 5 2% 0.70 in 0% 6 mhos 547 None None - -
10/21/2014 10:10 Wet 43.2F 51F 31F 5 2% 0.10 in 0% 7 mhos 599 None None - -
10/21/2014 10:03 Wet 43.5F 51F 31F 5 3% 0.10 in 0% 9 mhos 833 None None - -
10/21/2014 09:55 Wet 43.5F 51F 31F 5 5% 0.00 in 0% 16 mhos 1471 None None - -
10/21/2014 09:53 Wet 43.5F 51F 30F 5 6% 0.00 in 0% 19 mhos 1745 None None - -
10/21/2014 09:43 Wet 43.5F 51F 29F 5 11% 0.00 in 0% 33 mhos 3169 Yes - - -
10/21/2014 09:40 Wet 43.7F 51F 28F 5 14% 0.70 in 0% 41 mhos 4060 None None - -
10/21/2014 09:33 Wet 43.9F 51F 26F 5 17% 0.00 in 0% 50 mhos 5114 None None - -
10/21/2014 09:25 Wet 43.5F 51F 22F 5 25% 0.00 in 0% 66 mhos 7555 None None - -
10/21/2014 09:22 Wet 43.5F 51F 19F 10 29% 0.00 in 0% 72 mhos 8767 None None - -
10/21/2014 09:12 Wet 43.3F 51F 15F 15 36% 0.00 in 0% 80 mhos 10724 None None - -
10/21/2014 09:10 Wet 43.2F 51F 13F 10 38% 0.00 in 0% 82 mhos 11536 None None - -
10/21/2014 09:02 Wet 43.0F 51F 15F 5 35% 0.70 in 0% 79 mhos 10566 None None - -
10/21/2014 08:55 Wet 43.2F 51F 14F 5 37% 0.70 in 0% 81 mhos 11235 None None - -
Date/Time
(MDT)
Sf
Temp Chem Water Layer Surface Precipitation
Sf Sub Frz Factor Pct Depth IcePct Cond Salin Type Intens Accum Rate
10/21/2014 08:52 Wet 43.0F 51F 13F 5 39% 0.80 in 0% 83 mhos 11720 None None - -
10/21/2014 08:42 Wet 42.8F 51F 3F 5 50% 0.70 in 0% 88 mhos 15000 None None - -
10/21/2014 08:40 Wet 42.8F 51F 6F 5 47% 0.70 in 0% 86 mhos 14249 None None - -
10/21/2014 08:32 Wet 42.4F 51F 13F 5 38% 0.70 in 0% 81 mhos 11456 Yes - - -
10/21/2014 08:25 Wet 41.7F 51F 15F 5 35% 0.70 in 0% 78 mhos 10601 None None - -
10/21/2014 08:22 Wet 41.7F 51F 17F 5 33% 0.70 in 0% 76 mhos 10014 None None - -
10/21/2014 08:12 Wet 41.5F 51F 20F 5 29% 0.70 in 0% 70 mhos 8729 None None - -
10/21/2014 08:10 Wet 41.5F 51F 20F 5 28% 0.70 in 0% 69 mhos 8383 None None - -
10/21/2014 08:02 Wet 41.7F 51F 22F 5 25% 0.70 in 0% 65 mhos 7624 None None - -
10/21/2014 07:55 Wet 41.7F 51F 18F 5 31% 0.70 in 0% 73 mhos 9296 None None - -
10/21/2014 07:52 Wet 41.7F 51F 21F 5 26% 0.70 in 0% 66 mhos 7896 None None - -
10/21/2014 07:42 Wet 41.7F 51F 30F 5 8% 0.70 in 0% 26 mhos 2527 None None - -
10/21/2014 07:32 Wet 42.3F 51F 3F 5 50% 0.70 in 0% 88 mhos 15000 None None - -
10/21/2014 07:26 Wet 42.8F 51F 3F 5 50% 0.70 in 0% 86 mhos 15000 None None - -
10/21/2014 07:22 Wet 43.2F 51F 3F 5 50% 0.70 in 0% 88 mhos 15000 None None - -
Date/Time
(MDT)
Sf
Temp Chem Water Layer Surface Precipitation
Sf Sub Frz Factor Pct Depth IcePct Cond Salin Type Intens Accum Rate
10/21/2014 07:12 Wet 43.5F 51F 12F 5 40% 0.70 in 0% 84 mhos 12027 None None - -
10/21/2014 07:02 Wet 43.7F 51F 14F 5 37% 0.70 in 0% 81 mhos 11029 Yes - - -
10/21/2014 06:55 Wet 43.9F 52F 3F 5 50% 0.00 in 0% 89 mhos 15000 Yes - - -
10/21/2014 06:52 Wet 43.9F 52F 3F 5 50% 0.00 in 0% 96 mhos 15000 Yes - - -
10/21/2014 06:42 Wet 43.9F 52F 3F 10 50% 0.00 in 0% 199 mhos 15000 Yes - - -
10/21/2014 06:32 Wet 43.9F 52F 31F 5 2% 0.70 in 0% 7 mhos 583 Yes - - -
10/21/2014 06:25 Wet 43.9F 52F 32F 5 1% 0.70 in 0% 4 mhos 349 Yes - - -
10/21/2014 06:22 Wet 43.9F 52F 32F 5 1% 0.70 in 0% 3 mhos 280 Yes - - -
10/21/2014 06:12 Wet 43.7F 52F 32F 5 0% 0.70 in 0% 0 mhos 42 None None - -
10/21/2014 06:01 Wet 43.7F 52F 32F 5 1% 0.70 in 0% 3 mhos 249 Yes - - -
10/21/2014 05:55 Dry 43.9F 52F - - - - - 37 mhos 3649 Yes - - -
10/21/2014 05:51 Dry 43.5F 52F - - - - - 37 mhos 3642 None None - -
10/21/2014 05:41 Dry 42.8F 52F - - - - - 38 mhos 3792 None None - -
10/21/2014 05:40 Dry 42.6F 52F - - - - - 38 mhos 3801 None None - -
10/21/2014 05:31 Dry 43.0F 52F - - - - - 38 mhos 3814 None None - -
Date/Time
(MDT)
Sf
Temp Chem Water Layer Surface Precipitation
Sf Sub Frz Factor Pct Depth IcePct Cond Salin Type Intens Accum Rate
10/21/2014 05:25 Dry 43.2F 52F - - - - - 38 mhos 3805 None None - -
10/21/2014 05:21 Dry 43.5F 52F - - - - - 38 mhos 3788 None None - -
10/21/2014 05:11 Dry 43.5F 52F - - - - - 38 mhos 3780 None None - -
10/21/2014 05:01 Dry 43.9F 52F - - - - - 38 mhos 3705 None None - -
10/21/2014 04:56 Dry 44.2F 52F - - - - - 35 mhos 3349 None None - -
10/21/2014 04:51 Dry 44.4F 52F - - - - - 4 mhos 346 None None - -
10/21/2014 04:41 Dry 45.0F 52F - - - - - 5 mhos 427 Yes - - -
10/21/2014 04:31 Dry 45.0F 52F - - - - - 39 mhos 3804 None None - -
10/21/2014 04:26 Dry 44.8F 52F - - - - - 39 mhos 3812 None None - -
10/21/2014 04:21 Dry 44.4F 52F - - - - - 39 mhos 3829 Yes - - -
10/21/2014 04:11 Dry 44.1F 52F - - - - - 39 mhos 3846 None None - -
10/21/2014 04:01 Dry 43.9F 52F - - - - - 39 mhos 3854 Yes - - -
10/21/2014 03:56 Dry 44.2F 52F - - - - - 39 mhos 3807 None None - -
10/21/2014 03:51 Dry 44.6F 52F - - - - - 39 mhos 3790 None None - -
10/21/2014 03:41 Dry 45.0F 52F - - - - - 39 mhos 3744 Yes - - -
Date/Time
(MDT)
Sf
Temp Chem Water Layer Surface Precipitation
Sf Sub Frz Factor Pct Depth IcePct Cond Salin Type Intens Accum Rate
10/21/2014 03:31 Dry 45.0F 52F - - - - - 39 mhos 3744 None None - -
10/21/2014 03:25 Dry 45.0F 52F - - - - - 39 mhos 3744 None None - -
10/21/2014 03:21 Dry 45.0F 52F - - - - - 39 mhos 3774 Yes - - -
10/21/2014 03:11 Dry 44.6F 52F - - - - - 33 mhos 3119 None None - -
10/21/2014 03:01 Dry 44.8F 53F - - - - - 39 mhos 3812 None None - -
10/21/2014 02:55 Dry 44.2F 53F - - - - - 39 mhos 3807 None None - -
10/21/2014 02:50 Dry 43.9F 53F - - - - - 38 mhos 3705 None None - -
10/21/2014 02:40 Dry 44.2F 53F - - - - - 40 mhos 3865 None None - -
10/21/2014 02:40 Dry 44.4F 53F - - - - - 40 mhos 3860 None None - -
10/21/2014 02:30 Dry 43.7F 53F - - - - - 40 mhos 3895 None None - -
10/21/2014 02:25 Dry 43.5F 53F - - - - - 40 mhos 3912 Yes - - -
10/21/2014 02:20 Dry 43.0F 53F - - - - - 40 mhos 3971 None None - -
10/21/2014 02:10 Dry 42.3F 53F - - - - - 40 mhos 4016 None None - -
10/21/2014 02:00 Dry 42.4F 53F - - - - - 40 mhos 3998 None None - -
10/21/2014 01:56 Dry 42.3F 53F - - - - - 40 mhos 3974 None None - -
Date/Time
(MDT)
Sf
Temp Chem Water Layer Surface Precipitation
Sf Sub Frz Factor Pct Depth IcePct Cond Salin Type Intens Accum Rate
10/21/2014 01:50 Dry 42.4F 53F - - - - - 40 mhos 3965 None None - -
10/21/2014 01:40 Dry 42.4F 53F - - - - - 40 mhos 3965 None None - -
10/21/2014 01:30 Dry 42.6F 53F - - - - - 40 mhos 3956 None None - -
10/21/2014 01:25 Dry 43.0F 53F - - - - - 40 mhos 3938 None None - -
10/21/2014 01:20 Dry 43.0F 53F - - - - - 40 mhos 3938 None None - -
10/21/2014 01:10 Dry 43.5F 53F - - - - - 40 mhos 3912 None None - -
10/21/2014 01:00 Dry 43.7F 53F - - - - - 40 mhos 3895 None None - -
10/21/2014 00:55 Dry 43.9F 53F - - - - - 40 mhos 3886 None None - -
10/21/2014 00:50 Dry 43.9F 53F - - - - - 40 mhos 3886 None None - -
10/21/2014 00:40 Dry 44.1F 53F - - - - - 40 mhos 3877 None None - -
10/21/2014 00:30 Dry 44.2F 53F - - - - - 40 mhos 3869 None None - -
10/21/2014 00:25 Dry 44.4F 53F - - - - - 40 mhos 3860 None None - -
10/21/2014 00:20 Dry 44.6F 53F - - - - - 40 mhos 3852 None None - -
10/21/2014 00:10 Dry 45.0F 53F - - - - - 40 mhos 3827 None None - -
10/21/2014 00:00 Dry 45.5F 53F - - - - - 40 mhos 3802 None None - -
Date/Time
(MDT)
Sf
Temp Chem Water Layer Surface Precipitation
Sf Sub Frz Factor Pct Depth IcePct Cond Salin Type Intens Accum Rate
10/20/2014 23:56 Dry 45.9F 53F - - - - - 40 mhos 3785 None None - -
10/20/2014 23:50 Dry 46.2F 53F - - - - - 40 mhos 3769 None None - -
10/20/2014 23:40 Dry 46.4F 53F - - - - - 40 mhos 3753 None None - -
10/20/2014 23:29 Dry 46.6F 53F - - - - - 40 mhos 3745 None None - -
10/20/2014 23:26 Dry 46.6F 53F - - - - - 40 mhos 3745 None None - -
10/20/2014 23:19 Dry 46.9F 53F - - - - - 40 mhos 3729 None None - -
10/20/2014 23:09 Dry 47.1F 53F - - - - - 40 mhos 3721 None None - -
10/20/2014 22:59 Dry 47.3F 53F - - - - - 40 mhos 3713 None None - -
10/20/2014 22:56 Dry 47.3F 53F - - - - - 40 mhos 3713 None None - -
10/20/2014 22:49 Dry 47.1F 53F - - - - - 40 mhos 3721 None None - -
10/20/2014 22:39 Dry 46.9F 53F - - - - - 40 mhos 3729 None None - -
10/20/2014 22:29 Dry 47.3F 53F - - - - - 40 mhos 3713 None None - -
10/20/2014 22:25 Dry 47.5F 53F - - - - - 40 mhos 3706 None None - -
10/20/2014 22:19 Dry 47.5F 53F - - - - - 40 mhos 3706 None None - -
10/20/2014 22:09 Dry 47.7F 53F - - - - - 40 mhos 3690 None None - -
Date/Time
(MDT)
Sf
Temp Chem Water Layer Surface Precipitation
Sf Sub Frz Factor Pct Depth IcePct Cond Salin Type Intens Accum Rate
10/20/2014 21:59 Dry 48.0F 53F - - - - - 40 mhos 3675 None None - -
10/20/2014 21:55 Dry 48.0F 53F - - - - - 40 mhos 3675 None None - -
10/20/2014 21:49 Dry 48.4F 53F - - - - - 40 mhos 3659 None None - -
10/20/2014 21:40 Dry 48.7F 53F - - - - - 40 mhos 3644 None None - -
10/20/2014 21:39 Dry 48.7F 53F - - - - - 40 mhos 3637 None None - -
10/20/2014 21:29 Dry 49.3F 53F - - - - - 40 mhos 3615 None None - -
10/20/2014 21:26 Dry 49.5F 53F - - - - - 39 mhos 3578 None None - -
10/20/2014 21:19 Dry 49.8F 53F - - - - - 40 mhos 3593 None None - -
10/20/2014 21:09 Dry 50.0F 53F - - - - - 39 mhos 3549 None None - -
10/20/2014 20:59 Dry 50.4F 53F - - - - - 39 mhos 3535 None None - -
10/20/2014 20:55 Dry 50.5F 53F - - - - - 39 mhos 3528 None None - -
10/20/2014 20:49 Dry 50.9F 53F - - - - - 39 mhos 3514 None None - -
10/20/2014 20:39 Dry 51.3F 53F - - - - - 39 mhos 3500 None None - -
10/20/2014 20:29 Dry 51.6F 53F - - - - - 39 mhos 3479 None None - -
10/20/2014 20:26 Dry 52.0F 53F - - - - - 39 mhos 3465 None None - -
Date/Time
(MDT)
Sf
Temp Chem Water Layer Surface Precipitation
Sf Sub Frz Factor Pct Depth IcePct Cond Salin Type Intens Accum Rate
10/20/2014 20:19 Dry 52.3F 53F - - - - - 39 mhos 3452 None None - -
10/20/2014 20:08 Dry 52.9F 52F - - - - - 39 mhos 3425 None None - -
10/20/2014 19:58 Dry 53.2F 52F - - - - - 39 mhos 3412 None None - -
10/20/2014 19:56 Dry 53.6F 52F - - - - - 39 mhos 3399 None None - -
10/20/2014 19:48 Dry 54.0F 52F - - - - - 39 mhos 3353 None None - -
10/20/2014 19:38 Dry 54.3F 52F - - - - - 39 mhos 3340 None None - -
10/20/2014 19:28 Dry 54.9F 52F - - - - - 39 mhos 3321 None None - -
10/20/2014 19:25 Dry 55.0F 52F - - - - - 39 mhos 3315 None None - -
10/20/2014 19:18 Dry 55.2F 52F - - - - - 39 mhos 3303 None None - -
10/20/2014 19:08 Dry 55.8F 52F - - - - - 39 mhos 3284 None None - -
10/20/2014 18:58 Dry 56.7F 52F - - - - - 39 mhos 3248 None None - -
10/20/2014 18:55 Dry 56.8F 52F - - - - - 39 mhos 3217 None None - -
10/20/2014 18:48 Dry 57.4F 52F - - - - - 39 mhos 3193 None None - -
10/20/2014 18:40 Dry 58.5F 52F - - - - - 39 mhos 3159 None None - -
10/20/2014 18:38 Dry 58.6F 52F - - - - - 39 mhos 3147 None None - -
Date/Time
(MDT)
Sf
Temp Chem Water Layer Surface Precipitation
Sf Sub Frz Factor Pct Depth IcePct Cond Salin Type Intens Accum Rate
10/20/2014 18:28 Dry 60.1F 52F - - - - - 38 mhos 3074 None None - -
10/20/2014 18:25 Dry 60.6F 51F - - - - - 38 mhos 3058 None None - -
10/20/2014 18:18 Dry 61.3F 51F - - - - - 38 mhos 3031 None None - -
10/20/2014 18:10 Dry 62.8F 51F - - - - - 38 mhos 2985 None None - -
10/20/2014 18:08 Dry 63.3F 51F - - - - - 38 mhos 2947 None None - -
Change End Date:
Copyright © 1998-2005 Surface Systems, Inc.
All Rights Reserved
Send comments about the data to:
SCAN Web ® is a registered trademark of Surface Systems, Inc.
SCAN Web Version 5.6